createdAt,value
2018-07-31T00:00:25.148Z,21.60
2018-07-31T00:02:54.409Z,21.60
2018-07-31T00:05:22.896Z,21.40
2018-07-31T00:07:51.118Z,21.20
2018-07-31T00:10:19.319Z,21.20
2018-07-31T00:12:47.905Z,21.40
2018-07-31T00:15:16.589Z,21.40
2018-07-31T00:17:45.968Z,21.20
2018-07-31T00:20:15.203Z,20.90
2018-07-31T00:22:44.879Z,20.80
2018-07-31T00:25:14.922Z,20.70
2018-07-31T00:27:43.549Z,20.70
2018-07-31T00:30:11.676Z,20.80
2018-07-31T00:32:41.658Z,21.00
2018-07-31T00:35:10.914Z,21.10
2018-07-31T00:37:39.082Z,21.20
2018-07-31T00:40:08.225Z,21.30
2018-07-31T00:42:38.910Z,21.40
2018-07-31T00:45:07.533Z,21.40
2018-07-31T00:47:35.952Z,21.20
2018-07-31T00:50:04.129Z,21.20
2018-07-31T00:52:34.364Z,21.30
2018-07-31T00:55:03.780Z,21.30
2018-07-31T00:57:34.281Z,21.40
2018-07-31T01:00:05.481Z,21.50
2018-07-31T01:02:33.648Z,21.40
2018-07-31T01:05:02.829Z,21.40
2018-07-31T01:07:31.929Z,21.40
2018-07-31T01:10:00.094Z,21.40
2018-07-31T01:12:28.327Z,21.40
2018-07-31T01:14:56.783Z,21.40
2018-07-31T01:17:25.596Z,21.40
2018-07-31T01:19:54.803Z,21.40
2018-07-31T01:22:22.996Z,21.40
2018-07-31T01:24:51.850Z,21.40
2018-07-31T01:27:20.322Z,21.30
2018-07-31T01:29:51.067Z,21.20
2018-07-31T01:32:19.836Z,21.30
2018-07-31T01:34:52.318Z,21.40
2018-07-31T01:37:22.001Z,21.50
2018-07-31T01:39:51.069Z,21.40
2018-07-31T01:42:22.257Z,21.20
2018-07-31T01:47:20.317Z,21.20
2018-07-31T01:49:49.635Z,21.20
2018-07-31T01:52:17.781Z,21.20
2018-07-31T01:54:48.264Z,21.40
2018-07-31T01:57:18.060Z,21.50
2018-07-31T01:59:47.471Z,21.60
2018-07-31T02:02:16.594Z,21.70
2018-07-31T02:04:44.746Z,21.60
2018-07-31T02:07:15.601Z,21.70
2018-07-31T02:09:43.780Z,21.40
2018-07-31T02:12:12.674Z,21.20
2018-07-31T02:14:41.197Z,21.00
2018-07-31T02:17:09.964Z,20.70
2018-07-31T02:19:40.041Z,20.70
2018-07-31T02:22:08.804Z,20.70
2018-07-31T02:27:06.367Z,20.70
2018-07-31T02:29:39.809Z,20.60
2018-07-31T02:32:08.957Z,20.50
2018-07-31T02:34:38.196Z,20.30
2018-07-31T02:37:07.450Z,20.30
2018-07-31T02:39:36.023Z,20.40
2018-07-31T02:42:04.603Z,20.50
2018-07-31T02:44:33.436Z,20.60
2018-07-31T02:47:04.369Z,20.70
2018-07-31T02:49:32.505Z,20.60
2018-07-31T02:52:00.637Z,20.60
2018-07-31T02:54:30.134Z,20.50
2018-07-31T02:56:59.133Z,20.40
2018-07-31T02:59:27.305Z,20.60
2018-07-31T03:01:56.135Z,20.70
2018-07-31T03:04:26.028Z,20.70
2018-07-31T03:06:55.538Z,20.60
2018-07-31T03:09:23.672Z,20.40
2018-07-31T03:11:58.186Z,20.60
2018-07-31T03:14:26.649Z,20.70
2018-07-31T03:16:58.812Z,20.70
2018-07-31T03:19:28.573Z,20.70
2018-07-31T03:21:56.803Z,20.50
2018-07-31T03:24:24.976Z,20.20
2018-07-31T03:26:55.691Z,20.20
2018-07-31T03:29:24.690Z,20.40
2018-07-31T03:31:55.156Z,20.30
2018-07-31T03:34:23.914Z,20.10
2018-07-31T03:36:52.442Z,19.80
2018-07-31T03:39:20.640Z,19.80
2018-07-31T03:41:48.913Z,19.70
2018-07-31T03:44:18.340Z,19.70
2018-07-31T03:46:46.928Z,19.60
2018-07-31T03:49:15.313Z,19.70
2018-07-31T03:51:43.525Z,19.80
2018-07-31T03:54:11.959Z,19.80
2018-07-31T03:56:40.790Z,19.80
2018-07-31T03:59:08.981Z,19.80
2018-07-31T04:01:37.200Z,19.90
2018-07-31T04:04:06.359Z,19.90
2018-07-31T04:06:35.101Z,19.90
2018-07-31T04:09:06.756Z,19.80
2018-07-31T04:11:37.178Z,19.70
2018-07-31T04:16:33.318Z,19.70
2018-07-31T04:19:02.607Z,19.80
2018-07-31T04:21:31.468Z,19.90
2018-07-31T04:24:00.433Z,20.10
2018-07-31T04:26:28.671Z,20.20
2018-07-31T04:31:24.763Z,20.20
2018-07-31T04:33:54.959Z,19.90
2018-07-31T04:36:24.656Z,19.90
2018-07-31T04:38:52.848Z,20.30
2018-07-31T04:41:23.540Z,20.50
2018-07-31T04:43:51.831Z,20.50
2018-07-31T04:46:20.716Z,20.60
2018-07-31T04:48:49.524Z,20.80
2018-07-31T04:51:18.178Z,20.80
2018-07-31T04:53:46.339Z,21.00
2018-07-31T04:56:14.844Z,21.10
2018-07-31T04:58:43.058Z,21.40
2018-07-31T05:01:15.312Z,21.70
2018-07-31T05:03:43.757Z,21.80
2018-07-31T05:06:14.313Z,22.00
2018-07-31T05:08:42.475Z,21.90
2018-07-31T05:11:11.445Z,21.90
2018-07-31T05:13:39.612Z,22.10
2018-07-31T05:16:08.999Z,22.50
2018-07-31T05:18:38.028Z,23.00
2018-07-31T05:21:06.508Z,23.60
2018-07-31T05:23:35.144Z,24.10
2018-07-31T05:26:04.677Z,24.30
2018-07-31T05:28:34.384Z,24.40
2018-07-31T05:31:03.908Z,24.80
2018-07-31T05:33:33.044Z,25.30
2018-07-31T05:36:04.813Z,25.70
2018-07-31T05:38:33.320Z,26.00
2018-07-31T05:41:01.474Z,26.30
2018-07-31T05:43:30.979Z,26.50
2018-07-31T05:46:00.104Z,26.80
2018-07-31T05:48:29.510Z,27.00
2018-07-31T05:50:58.692Z,27.30
2018-07-31T05:53:27.412Z,27.60
2018-07-31T05:55:57.292Z,28.00
2018-07-31T05:58:25.486Z,28.30
2018-07-31T06:00:53.636Z,28.60
2018-07-31T06:03:22.302Z,28.60
2018-07-31T06:08:26.212Z,29.20
2018-07-31T06:10:55.070Z,29.50
2018-07-31T06:13:23.181Z,29.90
2018-07-31T06:15:51.368Z,30.50
2018-07-31T06:18:19.536Z,30.70
2018-07-31T06:20:49.232Z,30.80
2018-07-31T06:23:18.782Z,31.10
2018-07-31T06:25:48.650Z,31.20
2018-07-31T06:28:17.416Z,31.30
2018-07-31T06:30:45.564Z,31.60
2018-07-31T06:33:13.676Z,31.80
2018-07-31T06:35:42.180Z,32.20
2018-07-31T06:38:10.983Z,32.60
2018-07-31T06:40:40.012Z,32.90
2018-07-31T06:43:08.987Z,33.40
2018-07-31T06:45:38.117Z,34.00
2018-07-31T06:48:06.252Z,34.10
2018-07-31T06:50:35.584Z,34.30
2018-07-31T06:53:06.366Z,34.70
2018-07-31T06:55:34.828Z,35.10
2018-07-31T06:58:03.070Z,35.60
2018-07-31T07:00:31.944Z,35.90
2018-07-31T07:03:07.704Z,36.10
2018-07-31T07:05:36.437Z,36.40
2018-07-31T07:08:05.056Z,36.90
2018-07-31T07:10:33.210Z,37.20
2018-07-31T07:13:01.693Z,37.50
2018-07-31T07:15:30.932Z,37.90
2018-07-31T07:17:59.701Z,38.30
2018-07-31T07:20:28.198Z,38.60
2018-07-31T07:22:57.508Z,38.80
2018-07-31T07:25:29.002Z,39.00
2018-07-31T07:27:57.242Z,39.30
2018-07-31T07:30:26.585Z,39.40
2018-07-31T07:32:54.818Z,39.40
2018-07-31T07:35:23.967Z,39.70
2018-07-31T07:37:52.444Z,39.80
2018-07-31T07:40:21.080Z,39.70
2018-07-31T07:42:49.904Z,39.40
2018-07-31T07:45:18.064Z,39.20
2018-07-31T07:47:46.835Z,38.80
2018-07-31T07:50:15.027Z,38.90
2018-07-31T07:52:46.292Z,39.00
2018-07-31T07:55:15.075Z,39.00
2018-07-31T07:57:44.375Z,39.10
2018-07-31T08:00:12.553Z,38.60
2018-07-31T08:02:43.575Z,38.60
2018-07-31T08:05:13.182Z,38.70
2018-07-31T08:07:42.052Z,38.80
2018-07-31T08:10:10.236Z,39.30
2018-07-31T08:12:38.379Z,39.60
2018-07-31T08:15:08.306Z,40.00
2018-07-31T08:17:38.556Z,40.30
2018-07-31T08:20:07.587Z,40.30
2018-07-31T08:22:36.027Z,40.50
2018-07-31T08:25:05.186Z,40.30
2018-07-31T08:27:34.241Z,40.50
2018-07-31T08:30:02.576Z,40.90
2018-07-31T08:32:30.760Z,41.00
2018-07-31T08:34:59.187Z,41.00
2018-07-31T08:37:31.545Z,41.30
2018-07-31T08:40:00.705Z,40.80
2018-07-31T08:42:28.900Z,40.90
2018-07-31T08:44:57.445Z,40.90
2018-07-31T08:47:25.640Z,40.50
2018-07-31T08:49:58.266Z,40.00
2018-07-31T08:52:27.302Z,39.20
2018-07-31T08:54:56.236Z,38.40
2018-07-31T08:57:24.764Z,38.30
2018-07-31T08:59:54.121Z,38.40
2018-07-31T09:02:22.473Z,38.70
2018-07-31T09:04:51.486Z,39.30
2018-07-31T09:07:19.640Z,40.00
2018-07-31T09:09:47.853Z,40.00
2018-07-31T09:12:16.576Z,39.80
2018-07-31T09:14:45.348Z,40.10
2018-07-31T09:17:13.789Z,40.80
2018-07-31T09:19:42.954Z,41.40
2018-07-31T09:22:11.116Z,42.10
2018-07-31T09:24:39.908Z,42.50
2018-07-31T09:27:08.688Z,42.70
2018-07-31T09:29:38.421Z,43.00
2018-07-31T09:32:06.934Z,43.20
2018-07-31T09:34:50.075Z,42.90
2018-07-31T09:37:18.240Z,42.80
2018-07-31T09:39:46.414Z,42.80
2018-07-31T09:42:15.642Z,43.10
2018-07-31T09:44:44.085Z,43.00
2018-07-31T09:47:12.875Z,42.80
2018-07-31T09:49:41.864Z,43.30
2018-07-31T09:52:13.418Z,43.60
2018-07-31T09:54:41.560Z,43.10
2018-07-31T09:57:10.431Z,43.30
2018-07-31T09:59:38.591Z,43.40
2018-07-31T10:02:06.823Z,43.70
2018-07-31T10:04:35.661Z,43.90
2018-07-31T10:07:04.816Z,44.10
2018-07-31T10:09:33.347Z,44.10
2018-07-31T10:12:02.726Z,44.20
2018-07-31T10:14:30.820Z,44.00
2018-07-31T10:17:00.196Z,43.60
2018-07-31T10:19:28.739Z,43.40
2018-07-31T10:21:56.902Z,43.50
2018-07-31T10:24:25.966Z,43.10
2018-07-31T10:26:54.116Z,42.90
2018-07-31T10:29:23.720Z,42.50
2018-07-31T10:31:51.866Z,42.70
2018-07-31T10:34:20.147Z,42.80
2018-07-31T10:36:48.292Z,42.10
2018-07-31T10:39:16.408Z,41.50
2018-07-31T10:41:44.583Z,41.40
2018-07-31T10:44:12.796Z,41.40
2018-07-31T10:46:42.085Z,41.00
2018-07-31T10:49:10.281Z,41.40
2018-07-31T10:51:40.288Z,41.70
2018-07-31T10:54:09.404Z,41.40
2018-07-31T10:56:37.545Z,40.70
2018-07-31T10:59:07.721Z,40.20
2018-07-31T11:01:36.037Z,40.30
2018-07-31T11:04:05.085Z,40.10
2018-07-31T11:06:33.605Z,40.20
2018-07-31T11:09:02.176Z,40.20
2018-07-31T11:11:32.748Z,40.40
2018-07-31T11:14:00.896Z,40.00
2018-07-31T11:16:31.756Z,40.10
2018-07-31T11:18:59.929Z,40.50
2018-07-31T11:21:28.074Z,40.70
2018-07-31T11:23:57.236Z,40.50
2018-07-31T11:26:26.021Z,40.20
2018-07-31T11:28:57.948Z,40.10
2018-07-31T11:31:26.100Z,40.10
2018-07-31T11:33:54.860Z,40.30
2018-07-31T11:36:23.752Z,40.60
2018-07-31T11:38:51.944Z,40.50
2018-07-31T11:41:21.120Z,40.20
2018-07-31T11:43:50.456Z,40.10
2018-07-31T11:46:21.871Z,40.60
2018-07-31T11:48:50.667Z,40.70
2018-07-31T11:51:19.447Z,40.30
2018-07-31T11:53:47.815Z,40.00
2018-07-31T11:56:16.276Z,40.20
2018-07-31T11:58:45.963Z,40.50
2018-07-31T12:01:14.111Z,40.50
2018-07-31T12:03:42.951Z,40.60
2018-07-31T12:06:11.869Z,40.80
2018-07-31T12:08:40.654Z,41.10
2018-07-31T12:11:09.020Z,42.00
2018-07-31T12:13:37.787Z,43.10
2018-07-31T12:16:05.952Z,43.40
2018-07-31T12:18:35.851Z,43.10
2018-07-31T12:21:04.490Z,42.50
2018-07-31T12:23:33.018Z,43.20
2018-07-31T12:26:02.510Z,43.80
2018-07-31T12:28:31.930Z,44.50
2018-07-31T12:31:01.125Z,45.20
2018-07-31T12:33:29.326Z,44.80
2018-07-31T12:35:58.432Z,44.90
2018-07-31T12:38:29.982Z,44.30
2018-07-31T12:40:58.091Z,43.70
2018-07-31T12:43:27.196Z,42.70
2018-07-31T12:45:56.349Z,42.70
2018-07-31T12:48:24.835Z,43.30
2018-07-31T12:50:54.052Z,44.20
2018-07-31T12:53:22.184Z,45.00
2018-07-31T12:55:50.365Z,45.50
2018-07-31T12:58:18.499Z,44.90
2018-07-31T13:00:47.536Z,44.80
2018-07-31T13:03:15.745Z,44.70
2018-07-31T13:05:43.927Z,44.30
2018-07-31T13:08:12.615Z,44.60
2018-07-31T13:10:41.381Z,44.80
2018-07-31T13:13:10.030Z,45.60
2018-07-31T13:15:38.843Z,46.00
2018-07-31T13:18:09.266Z,45.60
2018-07-31T13:20:37.481Z,45.00
2018-07-31T13:23:06.600Z,44.80
2018-07-31T13:25:37.539Z,44.80
2018-07-31T13:28:06.113Z,45.20
2018-07-31T13:30:35.151Z,45.40
2018-07-31T13:33:04.807Z,45.60
2018-07-31T13:35:33.868Z,46.00
2018-07-31T13:38:02.260Z,45.90
2018-07-31T13:40:30.448Z,44.90
2018-07-31T13:42:59.512Z,44.80
2018-07-31T13:45:27.985Z,44.20
2018-07-31T13:47:56.486Z,45.00
2018-07-31T13:50:26.672Z,45.90
2018-07-31T13:52:54.883Z,46.20
2018-07-31T13:55:23.046Z,45.60
2018-07-31T13:57:53.788Z,46.00
2018-07-31T14:00:22.244Z,46.30
2018-07-31T14:02:51.337Z,47.00
2018-07-31T14:05:19.530Z,47.10
2018-07-31T14:07:50.639Z,46.30
2018-07-31T14:10:19.462Z,44.40
2018-07-31T14:12:49.397Z,42.30
2018-07-31T14:15:21.808Z,40.80
2018-07-31T14:17:50.440Z,39.90
2018-07-31T14:20:18.599Z,39.40
2018-07-31T14:22:46.760Z,38.90
2018-07-31T14:25:15.376Z,38.60
2018-07-31T14:27:47.804Z,38.60
2018-07-31T14:30:17.434Z,39.20
2018-07-31T14:32:46.878Z,39.80
2018-07-31T14:35:16.084Z,40.60
2018-07-31T14:37:45.661Z,41.10
2018-07-31T14:40:15.874Z,41.60
2018-07-31T14:42:44.080Z,41.30
2018-07-31T14:45:13.016Z,41.40
2018-07-31T14:47:41.196Z,41.40
2018-07-31T14:50:09.785Z,41.60
2018-07-31T14:52:39.799Z,40.90
2018-07-31T14:55:08.968Z,41.50
2018-07-31T14:57:37.760Z,42.40
2018-07-31T15:00:06.709Z,41.60
2018-07-31T15:02:36.024Z,39.80
2018-07-31T15:05:04.622Z,38.90
2018-07-31T15:07:33.130Z,38.90
2018-07-31T15:10:01.268Z,39.90
2018-07-31T15:12:30.583Z,41.20
2018-07-31T15:15:00.442Z,41.70
2018-07-31T15:17:28.614Z,41.90
2018-07-31T15:19:57.620Z,41.50
2018-07-31T15:22:25.752Z,41.30
2018-07-31T15:24:55.221Z,41.50
2018-07-31T15:27:24.926Z,41.80
2018-07-31T15:29:53.540Z,41.90
2018-07-31T15:32:22.020Z,42.50
2018-07-31T15:34:51.580Z,43.00
2018-07-31T15:37:19.731Z,43.70
2018-07-31T15:39:52.575Z,44.20
2018-07-31T15:42:21.018Z,44.60
2018-07-31T15:44:50.163Z,44.40
2018-07-31T15:47:18.388Z,43.90
2018-07-31T15:49:46.864Z,42.80
2018-07-31T15:52:16.345Z,42.20
2018-07-31T15:57:12.828Z,42.80
2018-07-31T15:59:41.139Z,42.40
2018-07-31T16:02:09.715Z,42.60
2018-07-31T16:04:39.089Z,42.70
2018-07-31T16:07:09.109Z,42.60
2018-07-31T16:09:37.305Z,42.40
2018-07-31T16:12:06.424Z,42.40
2018-07-31T16:14:36.605Z,42.20
2018-07-31T16:17:05.810Z,41.80
2018-07-31T16:19:33.963Z,41.50
2018-07-31T16:22:02.872Z,40.60
2018-07-31T16:24:31.115Z,40.40
2018-07-31T16:27:02.083Z,40.80
2018-07-31T16:29:32.616Z,41.20
2018-07-31T16:32:01.287Z,41.10
2018-07-31T16:34:29.567Z,40.70
2018-07-31T16:36:58.416Z,40.30
2018-07-31T16:39:29.401Z,40.00
2018-07-31T16:41:59.688Z,39.60
2018-07-31T16:44:28.431Z,38.40
2018-07-31T16:46:56.660Z,38.30
2018-07-31T16:49:26.389Z,38.10
2018-07-31T16:51:59.477Z,37.60
2018-07-31T16:54:29.013Z,37.00
2018-07-31T16:57:00.096Z,36.80
2018-07-31T16:59:30.098Z,36.50
2018-07-31T17:01:58.236Z,36.10
2018-07-31T17:04:27.632Z,35.90
2018-07-31T17:06:57.834Z,35.90
2018-07-31T17:09:27.336Z,35.70
2018-07-31T17:11:57.404Z,35.40
2018-07-31T17:14:26.215Z,35.40
2018-07-31T17:16:55.401Z,35.40
2018-07-31T17:19:24.816Z,35.30
2018-07-31T17:21:54.400Z,35.00
2018-07-31T17:24:22.596Z,35.00
2018-07-31T17:26:51.369Z,35.00
2018-07-31T17:29:19.552Z,34.70
2018-07-31T17:31:47.828Z,34.60
2018-07-31T17:34:18.386Z,34.60
2018-07-31T17:36:47.469Z,34.60
2018-07-31T17:39:15.614Z,34.50
2018-07-31T17:41:44.721Z,34.50
2018-07-31T17:44:15.771Z,34.50
2018-07-31T17:46:44.508Z,34.40
2018-07-31T17:49:13.547Z,34.30
2018-07-31T17:51:42.631Z,34.20
2018-07-31T17:54:11.661Z,34.20
2018-07-31T17:56:45.639Z,33.90
2018-07-31T17:59:14.137Z,33.70
2018-07-31T18:01:43.050Z,33.80
2018-07-31T18:04:11.698Z,33.70
2018-07-31T18:06:42.509Z,33.70
2018-07-31T18:09:11.688Z,33.70
2018-07-31T18:11:40.805Z,33.50
2018-07-31T18:14:09.941Z,33.30
2018-07-31T18:16:38.812Z,33.20
2018-07-31T18:19:07.378Z,33.00
2018-07-31T18:21:36.472Z,32.90
2018-07-31T18:24:08.454Z,32.90
2018-07-31T18:26:37.430Z,32.80
2018-07-31T18:29:05.589Z,32.70
2018-07-31T18:31:35.251Z,32.40
2018-07-31T18:34:05.230Z,32.20
2018-07-31T18:36:35.815Z,32.00
2018-07-31T18:39:07.156Z,31.90
2018-07-31T18:41:35.736Z,31.80
2018-07-31T18:44:03.910Z,31.70
2018-07-31T18:46:33.369Z,31.60
2018-07-31T18:49:02.953Z,31.50
2018-07-31T18:51:31.817Z,31.30
2018-07-31T18:54:00.609Z,31.20
2018-07-31T18:56:28.798Z,31.10
2018-07-31T18:59:02.040Z,31.00
2018-07-31T19:01:31.097Z,30.90
2018-07-31T19:03:59.517Z,30.80
2018-07-31T19:06:27.703Z,30.60
2018-07-31T19:08:56.594Z,30.50
2018-07-31T19:11:27.168Z,30.50
2018-07-31T19:13:55.618Z,30.20
2018-07-31T19:16:24.172Z,30.10
2018-07-31T19:18:53.384Z,29.90
2018-07-31T19:21:21.536Z,29.80
2018-07-31T19:23:49.705Z,29.60
2018-07-31T19:26:18.460Z,29.50
2018-07-31T19:28:49.246Z,29.30
2018-07-31T19:31:18.176Z,29.20
2018-07-31T19:33:46.422Z,29.10
2018-07-31T19:36:14.510Z,29.00
2018-07-31T19:38:42.617Z,28.90
2018-07-31T19:41:11.128Z,28.80
2018-07-31T19:43:40.044Z,28.70
2018-07-31T19:46:08.218Z,28.60
2018-07-31T19:48:37.015Z,28.40
2018-07-31T19:51:09.822Z,28.20
2018-07-31T19:53:38.595Z,28.10
2018-07-31T19:56:08.203Z,28.00
2018-07-31T19:58:37.988Z,27.90
2018-07-31T20:01:06.101Z,27.80
2018-07-31T20:03:36.687Z,27.70
2018-07-31T20:06:06.948Z,27.50
2018-07-31T20:08:35.467Z,27.40
2018-07-31T20:11:03.663Z,27.30
2018-07-31T20:13:33.212Z,27.20
2018-07-31T20:16:05.358Z,27.20
2018-07-31T20:18:33.564Z,27.00
2018-07-31T20:21:04.153Z,27.00
2018-07-31T20:23:32.324Z,27.00
2018-07-31T20:26:00.519Z,26.90
2018-07-31T20:28:29.992Z,26.80
2018-07-31T20:31:00.432Z,26.70
2018-07-31T20:33:29.446Z,26.60
2018-07-31T20:35:59.117Z,26.60
2018-07-31T20:38:28.412Z,26.50
2018-07-31T20:40:56.664Z,26.40
2018-07-31T20:43:26.514Z,26.40
2018-07-31T20:45:54.687Z,26.40
2018-07-31T20:48:22.903Z,26.30
2018-07-31T20:50:51.314Z,26.20
2018-07-31T20:53:19.455Z,26.10
2018-07-31T20:55:47.592Z,26.00
2018-07-31T20:58:15.781Z,26.00
2018-07-31T21:00:43.988Z,25.80
2018-07-31T21:03:12.489Z,25.80
2018-07-31T21:05:42.354Z,25.80
2018-07-31T21:08:11.549Z,25.90
2018-07-31T21:10:40.218Z,25.80
2018-07-31T21:13:09.804Z,25.70
2018-07-31T21:15:38.777Z,25.60
2018-07-31T21:18:07.279Z,25.60
2018-07-31T21:20:36.518Z,25.60
2018-07-31T21:23:05.720Z,25.60
2018-07-31T21:25:35.055Z,25.50
2018-07-31T21:28:04.234Z,25.50
2018-07-31T21:30:34.464Z,25.50
2018-07-31T21:33:02.603Z,25.50
2018-07-31T21:35:34.484Z,25.50
2018-07-31T21:38:04.200Z,25.50
2018-07-31T21:40:33.101Z,25.40
2018-07-31T21:43:01.576Z,25.40
2018-07-31T21:45:31.572Z,25.30
2018-07-31T21:48:02.567Z,25.30
2018-07-31T21:50:30.988Z,25.40
2018-07-31T21:52:59.960Z,25.30
2018-07-31T21:55:28.147Z,25.30
2018-07-31T21:57:56.800Z,25.20
2018-07-31T22:00:24.944Z,25.10
2018-07-31T22:02:54.116Z,25.00
2018-07-31T22:05:23.360Z,25.00
2018-07-31T22:07:54.031Z,24.90
2018-07-31T22:10:22.210Z,24.90
2018-07-31T22:12:51.701Z,24.80
2018-07-31T22:15:22.301Z,24.80
2018-07-31T22:17:51.145Z,24.80
2018-07-31T22:20:20.231Z,24.70
2018-07-31T22:22:48.739Z,24.60
2018-07-31T22:25:16.876Z,24.60
2018-07-31T22:27:45.041Z,24.60
2018-07-31T22:30:14.422Z,24.60
2018-07-31T22:32:44.541Z,24.60
2018-07-31T22:35:13.969Z,24.60
2018-07-31T22:37:42.112Z,24.60
2018-07-31T22:40:12.032Z,24.60
2018-07-31T22:42:41.112Z,24.60
2018-07-31T22:45:09.828Z,24.60
2018-07-31T22:47:39.906Z,24.60
2018-07-31T22:50:09.257Z,24.60
2018-07-31T22:52:37.423Z,24.60
2018-07-31T22:55:06.671Z,24.50
2018-07-31T22:57:35.285Z,24.50
2018-07-31T23:00:08.536Z,24.50
2018-07-31T23:02:40.011Z,24.50
2018-07-31T23:05:11.427Z,24.50
2018-07-31T23:07:39.628Z,24.50
2018-07-31T23:10:08.417Z,24.40
2018-07-31T23:12:36.601Z,24.40
2018-07-31T23:15:05.998Z,24.40
2018-07-31T23:17:34.172Z,24.30
2018-07-31T23:20:04.310Z,24.20
2018-07-31T23:25:08.528Z,24.00
2018-07-31T23:27:37.611Z,24.00
2018-07-31T23:30:06.888Z,23.90
2018-07-31T23:32:36.324Z,23.90
2018-07-31T23:35:05.027Z,23.90
2018-07-31T23:37:33.172Z,23.80
2018-07-31T23:40:03.088Z,23.80
2018-07-31T23:42:32.404Z,23.80
2018-07-31T23:45:00.539Z,23.60
2018-07-31T23:47:29.666Z,23.60
2018-07-31T23:52:29.993Z,23.40
2018-07-31T23:54:58.575Z,23.20
2018-07-31T23:57:26.805Z,23.20
2018-07-31T23:59:55.304Z,23.00
